THY4HY LTAI-LTFM
Flight info
| Callsign | THY4HY |
|---|---|
| Flight time | 0h 49m |
| Altitude | 38000 |
| Route | EKSEN UM855 SISPI |
| Aircraft | B77W/H-SDE1E2E3FGHIJ2J3J4J5M1RWXY/LB1D1 |
Departure
| Time | 2026-05-06 21:05 |
|---|---|
| Airport | Antalya International Airport (LTAI) |
Arrival
| Time | 2026-05-06 21:55 |
|---|---|
| Airport | İstanbul Airport (LTFM) |
| Time | Latitude | Longitude | Altitude | Speed | Heading |
|---|---|---|---|---|---|
| 2026-05-06 20:30 | 36.89731 | 30.80018 | 211 ft | 0 kts | 61° |
| 2026-05-06 20:56 | 36.89720 | 30.79993 | 211 ft | 4 kts | 61° |
| 2026-05-06 20:56 | 36.89707 | 30.79963 | 206 ft | 4 kts | 61° |
| 2026-05-06 20:56 | 36.89695 | 30.79937 | 211 ft | 1 kts | 61° |
| 2026-05-06 20:57 | 36.89685 | 30.79912 | 211 ft | 4 kts | 39° |
| 2026-05-06 20:57 | 36.89663 | 30.79904 | 210 ft | 4 kts | 359° |
| 2026-05-06 20:57 | 36.89638 | 30.79910 | 211 ft | 4 kts | 320° |
| 2026-05-06 20:57 | 36.89625 | 30.79936 | 209 ft | 4 kts | 282° |
| 2026-05-06 20:58 | 36.89621 | 30.79968 | 209 ft | 2 kts | 275° |
| 2026-05-06 20:58 | 36.89621 | 30.79971 | 209 ft | 0 kts | 275° |
| 2026-05-06 20:59 | 36.89621 | 30.79967 | 209 ft | 1 kts | 275° |
| 2026-05-06 21:00 | 36.89623 | 30.79944 | 197 ft | 5 kts | 276° |
| 2026-05-06 21:00 | 36.89628 | 30.79878 | 201 ft | 9 kts | 276° |
| 2026-05-06 21:00 | 36.89636 | 30.79792 | 204 ft | 13 kts | 276° |
| 2026-05-06 21:00 | 36.89648 | 30.79651 | 197 ft | 17 kts | 276° |
| 2026-05-06 21:01 | 36.89662 | 30.79506 | 199 ft | 11 kts | 277° |
| 2026-05-06 21:01 | 36.89647 | 30.79448 | 206 ft | 7 kts | 219° |
| 2026-05-06 21:01 | 36.89594 | 30.79429 | 207 ft | 10 kts | 190° |
| 2026-05-06 21:01 | 36.89499 | 30.79415 | 203 ft | 17 kts | 186° |
| 2026-05-06 21:02 | 36.89359 | 30.79397 | 200 ft | 21 kts | 185° |
| 2026-05-06 21:02 | 36.89211 | 30.79379 | 209 ft | 21 kts | 186° |
| 2026-05-06 21:02 | 36.89064 | 30.79358 | 208 ft | 21 kts | 187° |
| 2026-05-06 21:02 | 36.88916 | 30.79337 | 207 ft | 21 kts | 186° |
| 2026-05-06 21:03 | 36.88768 | 30.79317 | 204 ft | 21 kts | 186° |
| 2026-05-06 21:03 | 36.88621 | 30.79296 | 207 ft | 21 kts | 186° |
| 2026-05-06 21:03 | 36.88520 | 30.79280 | 209 ft | 7 kts | 202° |
| 2026-05-06 21:03 | 36.88502 | 30.79223 | 207 ft | 8 kts | 266° |
| 2026-05-06 21:04 | 36.88506 | 30.79132 | 198 ft | 12 kts | 276° |
| 2026-05-06 21:04 | 36.88515 | 30.79070 | 208 ft | 4 kts | 302° |
| 2026-05-06 21:04 | 36.88541 | 30.79067 | 204 ft | 4 kts | 6° |
| 2026-05-06 21:04 | 36.88602 | 30.79076 | 209 ft | 23 kts | 7° |
| 2026-05-06 21:05 | 36.89002 | 30.79130 | 209 ft | 100 kts | 6° |
| 2026-05-06 21:05 | 36.89950 | 30.79265 | 209 ft | 170 kts | 7° |
| 2026-05-06 21:05 | 36.91116 | 30.79460 | 964 ft | 170 kts | 3° |
| 2026-05-06 21:05 | 36.92337 | 30.79338 | 1749 ft | 180 kts | 351° |
| 2026-05-06 21:06 | 36.93615 | 30.79107 | 2407 ft | 197 kts | 352° |
| 2026-05-06 21:06 | 36.95027 | 30.78856 | 3033 ft | 215 kts | 352° |
| 2026-05-06 21:06 | 36.96585 | 30.78582 | 3593 ft | 237 kts | 351° |
| 2026-05-06 21:06 | 36.98267 | 30.78282 | 4431 ft | 248 kts | 351° |
| 2026-05-06 21:07 | 36.99982 | 30.77954 | 5489 ft | 251 kts | 350° |
| 2026-05-06 21:07 | 37.01710 | 30.77584 | 6536 ft | 254 kts | 349° |
| 2026-05-06 21:07 | 37.03456 | 30.77198 | 7552 ft | 256 kts | 349° |
| 2026-05-06 21:07 | 37.05222 | 30.76810 | 8551 ft | 260 kts | 350° |
| 2026-05-06 21:08 | 37.07026 | 30.76432 | 9499 ft | 266 kts | 351° |
| 2026-05-06 21:08 | 37.08862 | 30.76055 | 10444 ft | 270 kts | 351° |
| 2026-05-06 21:08 | 37.10765 | 30.75671 | 11135 ft | 286 kts | 350° |
| 2026-05-06 21:08 | 37.12822 | 30.75254 | 11531 ft | 313 kts | 351° |
| 2026-05-06 21:09 | 37.15058 | 30.74831 | 11992 ft | 338 kts | 351° |
| 2026-05-06 21:09 | 37.17469 | 30.74383 | 12494 ft | 361 kts | 351° |
| 2026-05-06 21:09 | 37.19981 | 30.73921 | 13521 ft | 367 kts | 351° |
| 2026-05-06 21:09 | 37.22519 | 30.73447 | 14580 ft | 372 kts | 350° |
| 2026-05-06 21:10 | 37.25099 | 30.72959 | 15527 ft | 378 kts | 350° |
| 2026-05-06 21:10 | 37.27718 | 30.72462 | 16509 ft | 383 kts | 349° |
| 2026-05-06 21:10 | 37.30368 | 30.71965 | 17553 ft | 387 kts | 349° |
| 2026-05-06 21:10 | 37.33048 | 30.71469 | 18555 ft | 391 kts | 349° |
| 2026-05-06 21:11 | 37.35755 | 30.70968 | 19418 ft | 395 kts | 349° |
| 2026-05-06 21:11 | 37.38488 | 30.70460 | 20313 ft | 399 kts | 349° |
| 2026-05-06 21:11 | 37.41256 | 30.70008 | 21179 ft | 403 kts | 352° |
| 2026-05-06 21:11 | 37.44073 | 30.69779 | 22039 ft | 408 kts | 354° |
| 2026-05-06 21:12 | 37.46928 | 30.69640 | 22846 ft | 412 kts | 354° |
| 2026-05-06 21:12 | 37.49809 | 30.69501 | 23669 ft | 416 kts | 354° |
| 2026-05-06 21:12 | 37.52711 | 30.69332 | 24320 ft | 420 kts | 354° |
| 2026-05-06 21:12 | 37.55641 | 30.69139 | 24996 ft | 423 kts | 354° |
| 2026-05-06 21:13 | 37.58592 | 30.68938 | 25650 ft | 426 kts | 354° |
| 2026-05-06 21:13 | 37.61560 | 30.68746 | 26289 ft | 429 kts | 354° |
| 2026-05-06 21:13 | 37.64555 | 30.68557 | 26901 ft | 433 kts | 354° |
| 2026-05-06 21:13 | 37.67575 | 30.68370 | 27496 ft | 436 kts | 354° |
| 2026-05-06 21:14 | 37.70619 | 30.68182 | 28068 ft | 440 kts | 354° |
| 2026-05-06 21:14 | 37.73647 | 30.67993 | 28620 ft | 443 kts | 353° |
| 2026-05-06 21:14 | 37.76735 | 30.67800 | 29165 ft | 446 kts | 354° |
| 2026-05-06 21:14 | 37.79846 | 30.67606 | 29646 ft | 449 kts | 354° |
| 2026-05-06 21:15 | 37.82978 | 30.67409 | 30092 ft | 452 kts | 354° |
| 2026-05-06 21:15 | 37.86130 | 30.67212 | 30512 ft | 454 kts | 354° |
| 2026-05-06 21:15 | 37.89276 | 30.67010 | 31027 ft | 451 kts | 353° |
| 2026-05-06 21:15 | 37.92386 | 30.66643 | 31573 ft | 447 kts | 350° |
| 2026-05-06 21:16 | 37.95466 | 30.66151 | 32129 ft | 445 kts | 349° |
| 2026-05-06 21:16 | 37.98536 | 30.65661 | 32665 ft | 443 kts | 350° |
| 2026-05-06 21:16 | 38.01596 | 30.65221 | 33110 ft | 443 kts | 351° |
| 2026-05-06 21:16 | 38.04667 | 30.64817 | 33515 ft | 443 kts | 351° |
| 2026-05-06 21:17 | 38.07730 | 30.64429 | 34040 ft | 441 kts | 351° |
| 2026-05-06 21:17 | 38.10778 | 30.64043 | 34471 ft | 441 kts | 351° |
| 2026-05-06 21:17 | 38.13833 | 30.63649 | 34769 ft | 442 kts | 351° |
| 2026-05-06 21:17 | 38.16902 | 30.63248 | 35038 ft | 444 kts | 351° |
| 2026-05-06 21:18 | 38.19972 | 30.62844 | 35362 ft | 444 kts | 351° |
| 2026-05-06 21:18 | 38.23048 | 30.62438 | 35698 ft | 444 kts | 351° |
| 2026-05-06 21:18 | 38.26121 | 30.62033 | 36017 ft | 445 kts | 351° |
| 2026-05-06 21:18 | 38.29207 | 30.61625 | 36287 ft | 446 kts | 351° |
| 2026-05-06 21:19 | 38.32295 | 30.61212 | 36553 ft | 447 kts | 351° |
| 2026-05-06 21:19 | 38.35389 | 30.60794 | 36821 ft | 448 kts | 351° |
| 2026-05-06 21:19 | 38.38494 | 30.60374 | 37131 ft | 449 kts | 351° |
| 2026-05-06 21:19 | 38.41600 | 30.59954 | 37407 ft | 450 kts | 351° |
| 2026-05-06 21:20 | 38.44714 | 30.59533 | 37678 ft | 450 kts | 351° |
| 2026-05-06 21:20 | 38.47838 | 30.59110 | 37949 ft | 451 kts | 351° |
| 2026-05-06 21:20 | 38.50967 | 30.58686 | 38068 ft | 455 kts | 351° |
| 2026-05-06 21:21 | 38.57288 | 30.57829 | 38147 ft | 457 kts | 351° |
| 2026-05-06 21:21 | 38.63564 | 30.56979 | 38147 ft | 450 kts | 351° |
| 2026-05-06 21:22 | 38.69789 | 30.56132 | 38158 ft | 449 kts | 351° |
| 2026-05-06 21:22 | 38.76002 | 30.55258 | 38158 ft | 448 kts | 348° |
| 2026-05-06 21:23 | 38.82015 | 30.53302 | 38165 ft | 446 kts | 339° |
| 2026-05-06 21:23 | 38.87695 | 30.50164 | 38162 ft | 445 kts | 332° |
| 2026-05-06 21:24 | 38.93225 | 30.46576 | 38166 ft | 446 kts | 332° |
| 2026-05-06 21:24 | 38.98769 | 30.42969 | 38157 ft | 447 kts | 332° |
| 2026-05-06 21:25 | 39.04340 | 30.39377 | 38162 ft | 448 kts | 332° |
| 2026-05-06 21:25 | 39.09918 | 30.35791 | 38161 ft | 448 kts | 332° |
| 2026-05-06 21:26 | 39.15490 | 30.32206 | 38163 ft | 448 kts | 332° |
| 2026-05-06 21:26 | 39.21062 | 30.28613 | 38161 ft | 448 kts | 332° |
| 2026-05-06 21:27 | 39.26590 | 30.25041 | 38162 ft | 447 kts | 332° |
| 2026-05-06 21:27 | 39.32155 | 30.21437 | 38164 ft | 447 kts | 332° |
| 2026-05-06 21:28 | 39.37721 | 30.17828 | 38169 ft | 448 kts | 332° |
| 2026-05-06 21:28 | 39.43285 | 30.14213 | 38165 ft | 448 kts | 332° |
| 2026-05-06 21:29 | 39.48916 | 30.10750 | 38151 ft | 448 kts | 335° |
| 2026-05-06 21:29 | 39.51777 | 30.09159 | 37911 ft | 451 kts | 336° |
| 2026-05-06 21:29 | 39.54700 | 30.07558 | 37240 ft | 454 kts | 336° |
| 2026-05-06 21:29 | 39.57568 | 30.05989 | 36403 ft | 445 kts | 336° |
| 2026-05-06 21:30 | 39.60411 | 30.04421 | 35607 ft | 443 kts | 336° |
| 2026-05-06 21:30 | 39.63209 | 30.02866 | 34743 ft | 433 kts | 336° |
| 2026-05-06 21:30 | 39.65984 | 30.01317 | 33845 ft | 433 kts | 336° |
| 2026-05-06 21:30 | 39.68756 | 29.99765 | 32855 ft | 434 kts | 336° |
| 2026-05-06 21:31 | 39.71534 | 29.98209 | 31880 ft | 435 kts | 336° |
| 2026-05-06 21:31 | 39.74317 | 29.96650 | 30936 ft | 436 kts | 336° |
| 2026-05-06 21:31 | 39.77092 | 29.95094 | 30224 ft | 433 kts | 336° |
| 2026-05-06 21:31 | 39.79852 | 29.93545 | 29393 ft | 430 kts | 336° |
| 2026-05-06 21:32 | 39.82584 | 29.92008 | 28675 ft | 426 kts | 336° |
| 2026-05-06 21:32 | 39.87838 | 29.89051 | 28337 ft | 397 kts | 336° |
| 2026-05-06 21:32 | 39.90335 | 29.87642 | 28165 ft | 384 kts | 335° |
| 2026-05-06 21:33 | 39.92620 | 29.85953 | 27807 ft | 374 kts | 322° |
| 2026-05-06 21:33 | 39.94585 | 29.83755 | 27441 ft | 374 kts | 320° |
| 2026-05-06 21:33 | 39.96578 | 29.81517 | 26979 ft | 382 kts | 321° |
| 2026-05-06 21:33 | 39.98608 | 29.79261 | 26525 ft | 383 kts | 321° |
| 2026-05-06 21:34 | 40.00638 | 29.77018 | 26106 ft | 382 kts | 321° |
| 2026-05-06 21:34 | 40.02665 | 29.74785 | 25670 ft | 381 kts | 321° |
| 2026-05-06 21:34 | 40.04688 | 29.72562 | 25239 ft | 380 kts | 321° |
| 2026-05-06 21:34 | 40.06708 | 29.70345 | 24787 ft | 379 kts | 321° |
| 2026-05-06 21:35 | 40.08721 | 29.68135 | 24351 ft | 378 kts | 321° |
| 2026-05-06 21:35 | 40.10728 | 29.65930 | 23935 ft | 377 kts | 321° |
| 2026-05-06 21:35 | 40.12736 | 29.63724 | 23437 ft | 377 kts | 321° |
| 2026-05-06 21:35 | 40.14735 | 29.61524 | 22956 ft | 375 kts | 321° |
| 2026-05-06 21:36 | 40.16718 | 29.59342 | 22509 ft | 371 kts | 321° |
| 2026-05-06 21:36 | 40.18680 | 29.57179 | 22076 ft | 366 kts | 321° |
| 2026-05-06 21:36 | 40.20612 | 29.55049 | 21656 ft | 361 kts | 321° |
| 2026-05-06 21:36 | 40.22520 | 29.52943 | 21226 ft | 356 kts | 321° |
| 2026-05-06 21:37 | 40.24402 | 29.50865 | 20842 ft | 352 kts | 321° |
| 2026-05-06 21:37 | 40.26260 | 29.48811 | 20439 ft | 348 kts | 321° |
| 2026-05-06 21:37 | 40.28098 | 29.46778 | 20057 ft | 344 kts | 321° |
| 2026-05-06 21:37 | 40.29924 | 29.44758 | 19666 ft | 344 kts | 321° |
| 2026-05-06 21:38 | 40.31753 | 29.42733 | 19286 ft | 345 kts | 321° |
| 2026-05-06 21:38 | 40.33595 | 29.40693 | 18891 ft | 347 kts | 321° |
| 2026-05-06 21:38 | 40.35442 | 29.38646 | 18488 ft | 348 kts | 321° |
| 2026-05-06 21:38 | 40.37288 | 29.36597 | 18045 ft | 347 kts | 321° |
| 2026-05-06 21:39 | 40.38505 | 29.35244 | 17750 ft | 346 kts | 321° |
| 2026-05-06 21:39 | 40.40337 | 29.33208 | 17334 ft | 344 kts | 321° |
| 2026-05-06 21:39 | 40.42149 | 29.31192 | 16929 ft | 340 kts | 321° |
| 2026-05-06 21:39 | 40.43940 | 29.29198 | 16547 ft | 335 kts | 321° |
| 2026-05-06 21:40 | 40.45706 | 29.27231 | 16164 ft | 331 kts | 321° |
| 2026-05-06 21:40 | 40.47453 | 29.25282 | 15784 ft | 328 kts | 321° |
| 2026-05-06 21:40 | 40.49186 | 29.23349 | 15416 ft | 326 kts | 321° |
| 2026-05-06 21:40 | 40.50907 | 29.21428 | 15058 ft | 324 kts | 321° |
| 2026-05-06 21:41 | 40.52624 | 29.19512 | 14669 ft | 323 kts | 321° |
| 2026-05-06 21:41 | 40.54338 | 29.17597 | 14311 ft | 324 kts | 321° |
| 2026-05-06 21:41 | 40.56059 | 29.15672 | 13931 ft | 326 kts | 321° |
| 2026-05-06 21:41 | 40.57791 | 29.13735 | 13520 ft | 327 kts | 321° |
| 2026-05-06 21:42 | 40.59526 | 29.11792 | 13131 ft | 327 kts | 321° |
| 2026-05-06 21:42 | 40.61252 | 29.09856 | 12755 ft | 326 kts | 321° |
| 2026-05-06 21:42 | 40.62976 | 29.07923 | 12301 ft | 325 kts | 321° |
| 2026-05-06 21:42 | 40.64690 | 29.05998 | 11912 ft | 322 kts | 321° |
| 2026-05-06 21:43 | 40.66385 | 29.04093 | 11538 ft | 318 kts | 321° |
| 2026-05-06 21:43 | 40.68056 | 29.02215 | 11179 ft | 314 kts | 321° |
| 2026-05-06 21:43 | 40.69697 | 29.00367 | 10797 ft | 302 kts | 321° |
| 2026-05-06 21:43 | 40.71239 | 28.98629 | 10457 ft | 283 kts | 321° |
| 2026-05-06 21:44 | 40.72698 | 28.96985 | 10137 ft | 269 kts | 321° |
| 2026-05-06 21:44 | 40.74105 | 28.95400 | 9825 ft | 264 kts | 321° |
| 2026-05-06 21:44 | 40.75478 | 28.93854 | 9509 ft | 262 kts | 321° |
| 2026-05-06 21:44 | 40.76858 | 28.92298 | 9200 ft | 260 kts | 321° |
| 2026-05-06 21:45 | 40.78225 | 28.90755 | 8903 ft | 258 kts | 321° |
| 2026-05-06 21:45 | 40.79581 | 28.89224 | 8593 ft | 256 kts | 320° |
| 2026-05-06 21:45 | 40.80928 | 28.87702 | 8326 ft | 253 kts | 320° |
| 2026-05-06 21:45 | 40.82262 | 28.86194 | 8036 ft | 252 kts | 320° |
| 2026-05-06 21:46 | 40.83586 | 28.84697 | 7757 ft | 250 kts | 320° |
| 2026-05-06 21:46 | 40.84900 | 28.83209 | 7462 ft | 248 kts | 320° |
| 2026-05-06 21:46 | 40.86207 | 28.81730 | 7176 ft | 246 kts | 320° |
| 2026-05-06 21:46 | 40.87565 | 28.80392 | 6887 ft | 242 kts | 331° |
| 2026-05-06 21:47 | 40.89075 | 28.79409 | 6622 ft | 243 kts | 334° |
| 2026-05-06 21:47 | 40.90612 | 28.78470 | 6335 ft | 244 kts | 334° |
| 2026-05-06 21:47 | 40.92147 | 28.77516 | 6045 ft | 243 kts | 334° |
| 2026-05-06 21:47 | 40.93641 | 28.76520 | 5788 ft | 238 kts | 329° |
| 2026-05-06 21:48 | 40.95056 | 28.75404 | 5540 ft | 236 kts | 327° |
| 2026-05-06 21:48 | 40.96451 | 28.74290 | 5277 ft | 232 kts | 329° |
| 2026-05-06 21:48 | 40.97963 | 28.73625 | 5013 ft | 229 kts | 351° |
| 2026-05-06 21:48 | 40.99503 | 28.73472 | 5002 ft | 217 kts | 353° |
| 2026-05-06 21:49 | 41.01007 | 28.73380 | 4990 ft | 215 kts | 354° |
| 2026-05-06 21:49 | 41.02495 | 28.73328 | 4953 ft | 214 kts | 355° |
| 2026-05-06 21:49 | 41.03991 | 28.73288 | 4659 ft | 214 kts | 355° |
| 2026-05-06 21:49 | 41.05474 | 28.73253 | 4377 ft | 212 kts | 355° |
| 2026-05-06 21:50 | 41.06943 | 28.73221 | 4131 ft | 209 kts | 355° |
| 2026-05-06 21:50 | 41.08386 | 28.73188 | 3848 ft | 207 kts | 356° |
| 2026-05-06 21:50 | 41.09822 | 28.73155 | 3571 ft | 206 kts | 356° |
| 2026-05-06 21:50 | 41.11242 | 28.73123 | 3281 ft | 200 kts | 356° |
| 2026-05-06 21:51 | 41.12586 | 28.73092 | 3034 ft | 185 kts | 356° |
| 2026-05-06 21:51 | 41.13827 | 28.73065 | 2770 ft | 171 kts | 356° |
| 2026-05-06 21:51 | 41.14961 | 28.73039 | 2556 ft | 156 kts | 356° |
| 2026-05-06 21:51 | 41.16011 | 28.73014 | 2368 ft | 147 kts | 356° |
| 2026-05-06 21:52 | 41.17027 | 28.72989 | 2177 ft | 150 kts | 357° |
| 2026-05-06 21:52 | 41.18063 | 28.72969 | 1960 ft | 147 kts | 356° |
| 2026-05-06 21:52 | 41.19085 | 28.72943 | 1753 ft | 146 kts | 358° |
| 2026-05-06 21:52 | 41.20095 | 28.72918 | 1549 ft | 145 kts | 358° |
| 2026-05-06 21:53 | 41.21101 | 28.72892 | 1369 ft | 144 kts | 358° |
| 2026-05-06 21:53 | 41.22100 | 28.72867 | 1173 ft | 143 kts | 359° |
| 2026-05-06 21:53 | 41.23088 | 28.72848 | 963 ft | 142 kts | 1° |
| 2026-05-06 21:53 | 41.24072 | 28.72825 | 776 ft | 141 kts | 1° |
| 2026-05-06 21:54 | 41.25062 | 28.72799 | 618 ft | 144 kts | 1° |
| 2026-05-06 21:54 | 41.26065 | 28.72778 | 435 ft | 144 kts | 1° |
| 2026-05-06 21:54 | 41.27055 | 28.72752 | 336 ft | 135 kts | 1° |
| 2026-05-06 21:54 | 41.27876 | 28.72740 | 335 ft | 97 kts | 359° |
| 2026-05-06 21:55 | 41.28390 | 28.72730 | 338 ft | 46 kts | 359° |
| 2026-05-06 21:55 | 41.28583 | 28.72763 | 337 ft | 21 kts | 25° |
| 2026-05-06 21:55 | 41.28699 | 28.72842 | 335 ft | 15 kts | 34° |
| 2026-05-06 21:55 | 41.28722 | 28.72918 | 335 ft | 7 kts | 118° |
| 2026-05-06 21:56 | 41.28676 | 28.72942 | 335 ft | 8 kts | 170° |
| 2026-05-06 21:56 | 41.28620 | 28.72948 | 335 ft | 8 kts | 177° |
| 2026-05-06 21:56 | 41.28559 | 28.72950 | 337 ft | 9 kts | 179° |
| 2026-05-06 21:56 | 41.28491 | 28.72951 | 335 ft | 10 kts | 179° |
| 2026-05-06 21:57 | 41.28418 | 28.72953 | 334 ft | 11 kts | 179° |
| 2026-05-06 21:57 | 41.28341 | 28.72955 | 337 ft | 12 kts | 178° |
| 2026-05-06 21:57 | 41.28258 | 28.72957 | 334 ft | 12 kts | 179° |
| 2026-05-06 21:57 | 41.28169 | 28.72960 | 335 ft | 13 kts | 179° |
| 2026-05-06 21:58 | 41.28076 | 28.72963 | 333 ft | 14 kts | 179° |
| 2026-05-06 21:58 | 41.27979 | 28.72965 | 337 ft | 14 kts | 179° |
| 2026-05-06 21:58 | 41.27879 | 28.72967 | 335 ft | 15 kts | 179° |
| 2026-05-06 21:58 | 41.27777 | 28.72969 | 336 ft | 15 kts | 179° |
| 2026-05-06 21:59 | 41.27675 | 28.72970 | 334 ft | 15 kts | 179° |
| 2026-05-06 21:59 | 41.27573 | 28.72973 | 333 ft | 15 kts | 178° |
| 2026-05-06 21:59 | 41.27470 | 28.72977 | 334 ft | 15 kts | 179° |
| 2026-05-06 21:59 | 41.27368 | 28.72979 | 338 ft | 15 kts | 180° |
| 2026-05-06 22:00 | 41.27266 | 28.72980 | 334 ft | 15 kts | 179° |
| 2026-05-06 22:00 | 41.27164 | 28.72982 | 335 ft | 15 kts | 179° |
| 2026-05-06 22:00 | 41.27061 | 28.72984 | 338 ft | 15 kts | 179° |
| 2026-05-06 22:00 | 41.26975 | 28.72990 | 335 ft | 10 kts | 159° |
| 2026-05-06 22:01 | 41.26952 | 28.73074 | 336 ft | 10 kts | 89° |
| 2026-05-06 22:01 | 41.26954 | 28.73169 | 339 ft | 10 kts | 89° |
| 2026-05-06 22:01 | 41.26955 | 28.73264 | 338 ft | 10 kts | 89° |
| 2026-05-06 22:01 | 41.26956 | 28.73360 | 335 ft | 11 kts | 89° |
| 2026-05-06 22:02 | 41.26958 | 28.73468 | 335 ft | 12 kts | 89° |
| 2026-05-06 22:02 | 41.26959 | 28.73590 | 336 ft | 14 kts | 89° |
| 2026-05-06 22:02 | 41.26961 | 28.73724 | 339 ft | 15 kts | 88° |
| 2026-05-06 22:02 | 41.26963 | 28.73869 | 339 ft | 17 kts | 89° |
| 2026-05-06 22:03 | 41.26965 | 28.74026 | 339 ft | 18 kts | 89° |
| 2026-05-06 22:03 | 41.26968 | 28.74195 | 339 ft | 19 kts | 89° |
| 2026-05-06 22:03 | 41.26970 | 28.74374 | 339 ft | 20 kts | 89° |
| 2026-05-06 22:03 | 41.26973 | 28.74551 | 335 ft | 17 kts | 89° |
| 2026-05-06 22:04 | 41.26975 | 28.74712 | 335 ft | 17 kts | 88° |
| 2026-05-06 22:04 | 41.26977 | 28.74873 | 339 ft | 17 kts | 89° |
| 2026-05-06 22:04 | 41.26979 | 28.75034 | 339 ft | 17 kts | 88° |
| 2026-05-06 22:04 | 41.26968 | 28.75135 | 334 ft | 8 kts | 135° |
| 2026-05-06 22:05 | 41.26910 | 28.75155 | 336 ft | 9 kts | 176° |
| 2026-05-06 22:05 | 41.26845 | 28.75154 | 335 ft | 10 kts | 181° |
| 2026-05-06 22:05 | 41.26770 | 28.75154 | 334 ft | 13 kts | 179° |
| 2026-05-06 22:05 | 41.26666 | 28.75153 | 336 ft | 15 kts | 187° |
| 2026-05-06 22:06 | 41.26563 | 28.75118 | 334 ft | 15 kts | 197° |
| 2026-05-06 22:06 | 41.26461 | 28.75077 | 336 ft | 15 kts | 197° |
| 2026-05-06 22:06 | 41.26358 | 28.75035 | 336 ft | 16 kts | 198° |
| 2026-05-06 22:06 | 41.26254 | 28.74995 | 337 ft | 16 kts | 189° |
| 2026-05-06 22:07 | 41.26147 | 28.75012 | 335 ft | 16 kts | 161° |
| 2026-05-06 22:07 | 41.26048 | 28.75059 | 334 ft | 12 kts | 161° |
| 2026-05-06 22:07 | 41.26007 | 28.75047 | 336 ft | 5 kts | 230° |
| 2026-05-06 22:07 | 41.25988 | 28.74999 | 334 ft | 6 kts | 245° |
| 2026-05-06 22:08 | 41.25981 | 28.74971 | 334 ft | 1 kts | 252° |
| 2026-05-06 22:08 | 41.25979 | 28.74962 | 334 ft | 0 kts | 252° |